createdAt,value
2018-08-04T00:01:23.534Z,20.69
2018-08-04T00:03:52.198Z,20.77
2018-08-04T00:06:20.974Z,20.56
2018-08-04T00:08:49.472Z,20.59
2018-08-04T00:11:18.054Z,20.59
2018-08-04T00:13:47.028Z,20.54
2018-08-04T00:16:15.556Z,20.55
2018-08-04T00:18:44.179Z,20.41
2018-08-04T00:21:12.733Z,20.42
2018-08-04T00:23:41.260Z,20.50
2018-08-04T00:26:09.787Z,20.42
2018-08-04T00:28:38.314Z,20.41
2018-08-04T00:31:06.954Z,20.33
2018-08-04T00:33:35.604Z,20.36
2018-08-04T00:36:04.136Z,20.27
2018-08-04T00:38:32.689Z,20.17
2018-08-04T00:41:01.318Z,20.29
2018-08-04T00:43:29.827Z,20.24
2018-08-04T00:45:58.438Z,20.04
2018-08-04T00:48:27.063Z,19.89
2018-08-04T00:50:55.608Z,19.93
2018-08-04T00:53:24.266Z,19.99
2018-08-04T00:55:52.940Z,19.96
2018-08-04T00:58:21.626Z,19.83
2018-08-04T01:00:50.136Z,19.64
2018-08-04T01:03:18.654Z,19.72
2018-08-04T01:05:47.498Z,19.65
2018-08-04T01:08:16.358Z,19.60
2018-08-04T01:10:45.014Z,19.62
2018-08-04T01:13:13.611Z,19.62
2018-08-04T01:15:42.143Z,19.73
2018-08-04T01:18:10.693Z,19.75
2018-08-04T01:20:39.191Z,19.55
2018-08-04T01:23:07.734Z,19.56
2018-08-04T01:25:36.287Z,19.46
2018-08-04T01:28:05.022Z,19.49
2018-08-04T01:30:33.650Z,19.53
2018-08-04T01:33:02.257Z,19.53
2018-08-04T01:35:30.809Z,19.61
2018-08-04T01:37:59.436Z,19.64
2018-08-04T01:40:27.994Z,19.64
2018-08-04T01:42:56.552Z,19.59
2018-08-04T01:45:25.149Z,19.53
2018-08-04T01:47:53.689Z,19.58
2018-08-04T01:50:22.450Z,19.59
2018-08-04T01:52:51.005Z,19.68
2018-08-04T01:55:19.618Z,19.54
2018-08-04T01:57:48.172Z,19.57
2018-08-04T02:00:18.776Z,19.61
2018-08-04T02:02:47.368Z,19.69
2018-08-04T02:05:16.074Z,19.53
2018-08-04T02:07:44.608Z,19.50
2018-08-04T02:10:13.174Z,19.52
2018-08-04T02:12:41.729Z,19.54
2018-08-04T02:15:10.324Z,19.62
2018-08-04T02:17:38.849Z,19.65
2018-08-04T02:20:07.487Z,19.54
2018-08-04T02:22:36.115Z,19.46
2018-08-04T02:25:05.317Z,19.52
2018-08-04T02:27:33.884Z,19.40
2018-08-04T02:30:02.792Z,19.43
2018-08-04T02:32:31.401Z,19.45
2018-08-04T02:34:59.977Z,19.28
2018-08-04T02:37:28.556Z,19.39
2018-08-04T02:39:57.121Z,19.53
2018-08-04T02:42:25.894Z,19.50
2018-08-04T02:44:54.397Z,19.56
2018-08-04T02:47:22.995Z,19.56
2018-08-04T02:49:51.588Z,19.48
2018-08-04T02:52:20.127Z,19.49
2018-08-04T02:54:48.643Z,19.45
2018-08-04T02:57:17.225Z,19.49
2018-08-04T02:59:45.793Z,19.67
2018-08-04T03:02:14.384Z,19.39
2018-08-04T03:04:42.977Z,19.32
2018-08-04T03:07:11.587Z,19.25
2018-08-04T03:09:40.128Z,19.38
2018-08-04T03:12:08.909Z,19.41
2018-08-04T03:14:37.582Z,19.34
2018-08-04T03:17:06.379Z,19.37
2018-08-04T03:19:34.923Z,19.26
2018-08-04T03:22:03.492Z,19.22
2018-08-04T03:24:32.053Z,19.25
2018-08-04T03:27:00.567Z,19.17
2018-08-04T03:29:29.155Z,19.14
2018-08-04T03:31:57.752Z,19.22
2018-08-04T03:34:26.266Z,19.22
2018-08-04T03:36:55.129Z,19.15
2018-08-04T03:39:23.655Z,19.06
2018-08-04T03:41:52.175Z,18.93
2018-08-04T03:44:20.734Z,18.97
2018-08-04T03:46:49.287Z,19.04
2018-08-04T03:49:17.863Z,19.07
2018-08-04T03:51:46.403Z,19.10
2018-08-04T03:54:14.966Z,19.10
2018-08-04T03:56:43.716Z,18.98
2018-08-04T03:59:12.414Z,19.06
2018-08-04T04:01:41.035Z,19.07
2018-08-04T04:04:09.591Z,19.06
2018-08-04T04:06:38.239Z,19.01
2018-08-04T04:09:08.481Z,19.04
2018-08-04T04:11:37.080Z,19.10
2018-08-04T04:14:05.626Z,19.08
2018-08-04T04:16:34.456Z,19.13
2018-08-04T04:19:02.985Z,19.15
2018-08-04T04:21:31.624Z,19.21
2018-08-04T04:24:00.161Z,19.23
2018-08-04T04:26:28.661Z,19.16
2018-08-04T04:28:57.508Z,18.99
2018-08-04T04:31:26.040Z,19.04
2018-08-04T04:33:54.615Z,18.79
2018-08-04T04:36:23.193Z,18.75
2018-08-04T04:38:51.827Z,18.74
2018-08-04T04:41:20.363Z,18.77
2018-08-04T04:43:48.964Z,18.83
2018-08-04T04:46:17.560Z,18.93
2018-08-04T04:48:46.168Z,18.93
2018-08-04T04:51:14.741Z,18.94
2018-08-04T04:53:43.308Z,18.95
2018-08-04T04:56:11.836Z,18.91
2018-08-04T04:58:40.503Z,19.01
2018-08-04T05:01:09.059Z,18.87
2018-08-04T05:03:37.760Z,18.76
2018-08-04T05:06:06.392Z,18.73
2018-08-04T05:08:34.925Z,18.76
2018-08-04T05:11:03.558Z,18.81
2018-08-04T05:13:32.082Z,18.92
2018-08-04T05:16:00.702Z,18.83
2018-08-04T05:18:29.264Z,18.82
2018-08-04T05:20:57.831Z,18.87
2018-08-04T05:23:26.415Z,18.91
2018-08-04T05:25:55.102Z,18.83
2018-08-04T05:28:23.600Z,18.79
2018-08-04T05:30:52.124Z,18.89
2018-08-04T05:33:20.980Z,18.87
2018-08-04T05:35:49.632Z,18.88
2018-08-04T05:38:18.620Z,18.98
2018-08-04T05:40:47.463Z,19.09
2018-08-04T05:43:16.090Z,19.07
2018-08-04T05:45:44.825Z,19.11
2018-08-04T05:48:13.388Z,19.13
2018-08-04T05:50:42.020Z,19.24
2018-08-04T05:53:10.641Z,19.44
2018-08-04T05:55:39.234Z,19.45
2018-08-04T05:58:08.039Z,19.48
2018-08-04T06:00:36.651Z,19.66
2018-08-04T06:03:05.214Z,19.85
2018-08-04T06:05:33.754Z,19.90
2018-08-04T06:08:02.775Z,20.15
2018-08-04T06:10:31.313Z,20.26
2018-08-04T06:12:59.977Z,20.31
2018-08-04T06:15:28.561Z,20.47
2018-08-04T06:17:57.175Z,20.41
2018-08-04T06:20:25.740Z,20.63
2018-08-04T06:22:54.603Z,20.89
2018-08-04T06:25:23.121Z,21.00
2018-08-04T06:27:51.687Z,21.11
2018-08-04T06:30:20.225Z,21.13
2018-08-04T06:32:49.022Z,21.30
2018-08-04T06:35:17.542Z,21.53
2018-08-04T06:37:46.029Z,21.68
2018-08-04T06:40:14.592Z,21.91
2018-08-04T06:42:43.277Z,21.84
2018-08-04T06:45:11.835Z,21.99
2018-08-04T06:47:40.367Z,21.95
2018-08-04T06:50:08.944Z,21.86
2018-08-04T06:52:37.745Z,21.96
2018-08-04T06:55:06.648Z,22.12
2018-08-04T06:57:35.197Z,22.29
2018-08-04T07:00:04.366Z,22.31
2018-08-04T07:02:33.000Z,22.38
2018-08-04T07:05:02.438Z,22.17
2018-08-04T07:07:31.124Z,22.06
2018-08-04T07:09:59.671Z,22.38
2018-08-04T07:12:28.284Z,22.46
2018-08-04T07:14:56.837Z,22.37
2018-08-04T07:17:25.464Z,22.47
2018-08-04T07:19:54.123Z,22.74
2018-08-04T07:22:22.731Z,22.95
2018-08-04T07:24:51.343Z,23.13
2018-08-04T07:27:22.708Z,23.40
2018-08-04T07:29:51.353Z,23.56
2018-08-04T07:32:19.878Z,23.71
2018-08-04T07:34:48.353Z,23.95
2018-08-04T07:37:17.150Z,24.11
2018-08-04T07:39:45.744Z,24.15
2018-08-04T07:42:14.271Z,24.28
2018-08-04T07:44:42.900Z,24.47
2018-08-04T07:47:11.903Z,24.43
2018-08-04T07:49:40.485Z,24.30
2018-08-04T07:52:08.985Z,24.46
2018-08-04T07:54:37.868Z,24.52
2018-08-04T07:57:06.417Z,24.60
2018-08-04T07:59:35.116Z,24.68
2018-08-04T08:02:04.074Z,24.79
2018-08-04T08:04:32.684Z,24.87
2018-08-04T08:07:01.230Z,25.07
2018-08-04T08:09:29.840Z,25.10
2018-08-04T08:11:58.417Z,25.28
2018-08-04T08:14:26.922Z,25.49
2018-08-04T08:16:55.616Z,25.45
2018-08-04T08:19:24.223Z,25.67
2018-08-04T08:21:52.867Z,25.82
2018-08-04T08:24:21.385Z,25.90
2018-08-04T08:26:50.015Z,26.03
2018-08-04T08:29:18.572Z,25.77
2018-08-04T08:31:47.222Z,25.67
2018-08-04T08:34:15.810Z,25.69
2018-08-04T08:36:44.346Z,26.10
2018-08-04T08:39:12.881Z,26.06
2018-08-04T08:41:41.402Z,26.25
2018-08-04T08:44:09.920Z,26.29
2018-08-04T08:46:38.500Z,26.18
2018-08-04T08:49:07.093Z,26.07
2018-08-04T08:51:35.700Z,26.28
2018-08-04T08:54:04.482Z,26.59
2018-08-04T08:56:32.899Z,26.80
2018-08-04T08:59:01.454Z,26.86
2018-08-04T09:01:30.210Z,26.73
2018-08-04T09:03:58.753Z,26.80
2018-08-04T09:06:27.332Z,27.09
2018-08-04T09:08:56.061Z,27.29
2018-08-04T09:11:24.604Z,27.24
2018-08-04T09:13:53.179Z,27.01
2018-08-04T09:16:21.773Z,26.97
2018-08-04T09:18:52.417Z,27.16
2018-08-04T09:21:20.977Z,27.45
2018-08-04T09:23:49.620Z,27.49
2018-08-04T09:26:18.173Z,27.52
2018-08-04T09:28:46.844Z,27.63
2018-08-04T09:31:15.428Z,27.66
2018-08-04T09:33:44.274Z,27.88
2018-08-04T09:36:12.781Z,27.58
2018-08-04T09:38:41.276Z,27.96
2018-08-04T09:41:09.849Z,27.85
2018-08-04T09:43:38.459Z,27.95
2018-08-04T09:46:07.896Z,28.12
2018-08-04T09:48:36.384Z,27.51
2018-08-04T09:51:04.925Z,27.56
2018-08-04T09:53:33.561Z,27.84
2018-08-04T09:56:02.093Z,27.98
2018-08-04T09:58:30.690Z,27.93
2018-08-04T10:01:04.640Z,27.89
2018-08-04T10:03:33.364Z,27.69
2018-08-04T10:06:01.955Z,27.79
2018-08-04T10:08:30.523Z,28.14
2018-08-04T10:10:59.126Z,28.20
2018-08-04T10:13:27.742Z,28.42
2018-08-04T10:15:56.253Z,28.67
2018-08-04T10:18:24.904Z,29.06
2018-08-04T10:20:53.630Z,28.96
2018-08-04T10:23:22.136Z,28.82
2018-08-04T10:25:50.690Z,28.77
2018-08-04T10:28:19.250Z,28.87
2018-08-04T10:30:47.848Z,28.89
2018-08-04T10:33:16.485Z,28.85
2018-08-04T10:35:45.213Z,28.71
2018-08-04T10:38:13.732Z,28.78
2018-08-04T10:40:42.291Z,28.97
2018-08-04T10:43:11.178Z,29.12
2018-08-04T10:45:40.041Z,28.93
2018-08-04T10:48:08.734Z,28.68
2018-08-04T10:50:37.270Z,29.25
2018-08-04T10:53:06.198Z,29.54
2018-08-04T10:55:35.564Z,29.29
2018-08-04T10:58:04.339Z,29.58
2018-08-04T11:00:32.935Z,29.18
2018-08-04T11:03:01.735Z,29.28
2018-08-04T11:05:30.278Z,29.64
2018-08-04T11:07:58.862Z,29.54
2018-08-04T11:10:27.418Z,29.48
2018-08-04T11:12:56.039Z,29.56
2018-08-04T11:15:24.760Z,29.44
2018-08-04T11:17:53.412Z,29.83
2018-08-04T11:20:21.954Z,29.79
2018-08-04T11:22:50.573Z,30.11
2018-08-04T11:25:19.289Z,29.74
2018-08-04T11:27:47.825Z,29.57
2018-08-04T11:30:16.430Z,29.80
2018-08-04T11:32:45.096Z,29.78
2018-08-04T11:35:13.696Z,30.10
2018-08-04T11:37:42.292Z,30.09
2018-08-04T11:40:11.845Z,30.16
2018-08-04T11:42:40.377Z,29.91
2018-08-04T11:45:09.090Z,30.19
2018-08-04T11:47:37.597Z,30.23
2018-08-04T11:50:06.248Z,30.26
2018-08-04T11:52:34.809Z,30.28
2018-08-04T11:55:03.427Z,30.36
2018-08-04T11:57:32.039Z,30.33
2018-08-04T12:00:00.536Z,30.24
2018-08-04T12:02:29.149Z,30.44
2018-08-04T12:04:57.681Z,30.40
2018-08-04T12:07:26.329Z,30.45
2018-08-04T12:09:55.358Z,30.37
2018-08-04T12:12:23.873Z,30.85
2018-08-04T12:14:52.400Z,30.70
2018-08-04T12:17:20.913Z,31.29
2018-08-04T12:19:49.509Z,31.39
2018-08-04T12:22:18.116Z,31.21
2018-08-04T12:24:46.915Z,31.42
2018-08-04T12:27:15.434Z,31.75
2018-08-04T12:29:43.916Z,31.88
2018-08-04T12:32:12.466Z,31.32
2018-08-04T12:34:40.984Z,30.91
2018-08-04T12:37:09.684Z,31.23
2018-08-04T12:39:38.220Z,30.36
2018-08-04T12:42:06.801Z,30.47
2018-08-04T12:44:35.311Z,30.89
2018-08-04T12:47:03.984Z,31.20
2018-08-04T12:49:32.516Z,30.59
2018-08-04T12:52:01.069Z,31.31
2018-08-04T12:54:29.679Z,31.50
2018-08-04T12:56:58.246Z,32.38
2018-08-04T12:59:26.801Z,32.25
2018-08-04T13:01:55.669Z,32.88
2018-08-04T13:04:24.322Z,32.77
2018-08-04T13:06:52.845Z,31.71
2018-08-04T13:09:21.484Z,32.37
2018-08-04T13:11:50.124Z,33.43
2018-08-04T13:14:18.696Z,32.97
2018-08-04T13:16:47.204Z,33.07
2018-08-04T13:19:16.121Z,33.59
2018-08-04T13:21:44.954Z,33.97
2018-08-04T13:24:13.459Z,34.17
2018-08-04T13:26:42.131Z,34.08
2018-08-04T13:29:10.945Z,33.51
2018-08-04T13:31:39.523Z,33.11
2018-08-04T13:34:08.278Z,33.64
2018-08-04T13:36:36.871Z,32.76
2018-08-04T13:39:08.481Z,33.00
2018-08-04T13:41:37.388Z,32.11
2018-08-04T13:44:05.921Z,31.86
2018-08-04T13:46:34.795Z,32.47
2018-08-04T13:49:03.409Z,33.80
2018-08-04T13:51:31.922Z,32.73
2018-08-04T13:54:00.450Z,32.01
2018-08-04T13:56:29.210Z,31.96
2018-08-04T13:58:57.760Z,31.38
2018-08-04T14:01:26.291Z,32.13
2018-08-04T14:03:54.846Z,32.33
2018-08-04T14:06:23.491Z,33.31
2018-08-04T14:08:52.021Z,31.58
2018-08-04T14:11:20.557Z,31.71
2018-08-04T14:13:49.149Z,33.49
2018-08-04T14:16:17.826Z,33.64
2018-08-04T14:18:46.488Z,33.97
2018-08-04T14:21:15.121Z,33.92
2018-08-04T14:23:43.652Z,33.00
2018-08-04T14:26:12.395Z,32.56
2018-08-04T14:28:41.083Z,32.00
2018-08-04T14:31:09.548Z,33.14
2018-08-04T14:33:38.117Z,32.23
2018-08-04T14:36:06.692Z,31.78
2018-08-04T14:38:35.280Z,31.75
2018-08-04T14:41:03.805Z,31.68
2018-08-04T14:43:32.339Z,31.61
2018-08-04T14:46:00.882Z,31.87
2018-08-04T14:48:29.497Z,31.47
2018-08-04T14:50:57.990Z,31.58
2018-08-04T14:53:26.554Z,31.40
2018-08-04T14:55:55.096Z,30.65
2018-08-04T14:58:23.646Z,31.09
2018-08-04T15:00:52.188Z,31.10
2018-08-04T15:03:20.738Z,30.70
2018-08-04T15:05:49.400Z,30.86
2018-08-04T15:08:18.148Z,30.00
2018-08-04T15:10:46.669Z,30.16
2018-08-04T15:13:15.683Z,30.32
2018-08-04T15:15:44.253Z,29.99
2018-08-04T15:18:12.804Z,29.92
2018-08-04T15:20:41.365Z,30.00
2018-08-04T15:23:10.211Z,30.14
2018-08-04T15:25:39.215Z,30.20
2018-08-04T15:28:07.760Z,30.14
2018-08-04T15:30:36.359Z,29.86
2018-08-04T15:33:04.897Z,29.98
2018-08-04T15:35:33.547Z,30.40
2018-08-04T15:38:02.233Z,30.61
2018-08-04T15:40:30.870Z,30.31
2018-08-04T15:42:59.456Z,30.09
2018-08-04T15:45:27.981Z,29.85
2018-08-04T15:47:56.539Z,30.26
2018-08-04T15:50:25.086Z,29.99
2018-08-04T15:52:53.678Z,29.60
2018-08-04T15:55:22.269Z,29.57
2018-08-04T15:57:50.790Z,29.60
2018-08-04T16:00:19.541Z,29.56
2018-08-04T16:02:48.023Z,29.32
2018-08-04T16:05:16.591Z,29.11
2018-08-04T16:07:45.101Z,29.69
2018-08-04T16:10:14.731Z,29.67
2018-08-04T16:12:43.715Z,30.38
2018-08-04T16:15:12.341Z,30.29
2018-08-04T16:17:40.921Z,29.61
2018-08-04T16:20:14.691Z,29.55
2018-08-04T16:22:43.420Z,29.76
2018-08-04T16:25:12.185Z,29.94
2018-08-04T16:27:41.129Z,30.23
2018-08-04T16:30:10.559Z,29.60
2018-08-04T16:32:39.834Z,29.20
2018-08-04T16:35:09.405Z,29.10
2018-08-04T16:37:38.276Z,28.37
2018-08-04T16:40:08.140Z,28.38
2018-08-04T16:42:36.681Z,28.33
2018-08-04T16:45:05.878Z,28.17
2018-08-04T16:47:34.465Z,28.25
2018-08-04T16:50:03.417Z,28.01
2018-08-04T16:52:32.341Z,27.95
2018-08-04T16:55:00.929Z,27.87
2018-08-04T16:57:29.506Z,27.88
2018-08-04T16:59:58.040Z,27.90
2018-08-04T17:02:26.716Z,27.73
2018-08-04T17:04:55.248Z,27.63
2018-08-04T17:07:23.785Z,27.70
2018-08-04T17:09:52.394Z,27.43
2018-08-04T17:12:20.943Z,27.07
2018-08-04T17:14:49.405Z,26.92
2018-08-04T17:17:17.976Z,27.37
2018-08-04T17:19:46.529Z,27.09
2018-08-04T17:22:15.197Z,27.32
2018-08-04T17:24:45.227Z,27.52
2018-08-04T17:27:13.756Z,27.73
2018-08-04T17:29:42.301Z,27.20
2018-08-04T17:32:10.854Z,27.82
2018-08-04T17:34:39.456Z,27.78
2018-08-04T17:37:08.080Z,28.43
2018-08-04T17:39:36.676Z,28.74
2018-08-04T17:42:05.189Z,28.16
2018-08-04T17:44:33.816Z,27.82
2018-08-04T17:47:02.377Z,28.13
2018-08-04T17:49:31.027Z,28.33
2018-08-04T17:51:59.607Z,27.60
2018-08-04T17:54:28.177Z,28.03
2018-08-04T17:56:56.742Z,27.99
2018-08-04T17:59:25.395Z,27.62
2018-08-04T18:01:54.078Z,27.50
2018-08-04T18:04:22.640Z,27.99
2018-08-04T18:06:51.236Z,28.28
2018-08-04T18:09:19.788Z,27.79
2018-08-04T18:11:48.301Z,27.39
2018-08-04T18:14:16.864Z,26.92
2018-08-04T18:16:45.388Z,26.80
2018-08-04T18:19:13.999Z,27.43
2018-08-04T18:21:42.592Z,26.32
2018-08-04T18:24:11.128Z,26.25
2018-08-04T18:26:39.733Z,25.85
2018-08-04T18:29:08.535Z,25.17
2018-08-04T18:31:37.182Z,25.06
2018-08-04T18:34:05.880Z,24.75
2018-08-04T18:36:34.483Z,24.75
2018-08-04T18:39:03.585Z,24.55
2018-08-04T18:41:32.160Z,24.29
2018-08-04T18:44:00.748Z,24.06
2018-08-04T18:46:29.675Z,24.03
2018-08-04T18:48:58.163Z,23.98
2018-08-04T18:51:26.776Z,23.58
2018-08-04T18:53:55.493Z,23.59
2018-08-04T18:56:24.078Z,23.51
2018-08-04T18:58:52.769Z,23.42
2018-08-04T19:01:21.302Z,23.18
2018-08-04T19:03:49.954Z,23.09
2018-08-04T19:06:20.144Z,23.09
2018-08-04T19:08:48.919Z,22.88
2018-08-04T19:11:17.426Z,22.92
2018-08-04T19:13:46.016Z,22.93
2018-08-04T19:16:14.606Z,22.84
2018-08-04T19:18:43.843Z,22.72
2018-08-04T19:21:12.421Z,22.62
2018-08-04T19:23:40.973Z,22.65
2018-08-04T19:26:09.880Z,22.59
2018-08-04T19:28:38.454Z,22.55
2018-08-04T19:31:06.966Z,22.37
2018-08-04T19:33:35.621Z,22.43
2018-08-04T19:36:04.177Z,22.40
2018-08-04T19:38:32.744Z,22.25
2018-08-04T19:41:01.277Z,22.26
2018-08-04T19:43:30.000Z,22.20
2018-08-04T19:45:58.628Z,22.18
2018-08-04T19:48:27.249Z,22.18
2018-08-04T19:50:55.765Z,22.07
2018-08-04T19:53:24.353Z,21.97
2018-08-04T19:55:52.905Z,21.91
2018-08-04T19:58:21.550Z,21.82
2018-08-04T20:00:50.039Z,21.77
2018-08-04T20:03:18.933Z,21.81
2018-08-04T20:05:47.500Z,21.69
2018-08-04T20:08:16.156Z,21.67
2018-08-04T20:10:44.661Z,21.69
2018-08-04T20:13:13.179Z,21.57
2018-08-04T20:15:41.809Z,21.49
2018-08-04T20:18:10.312Z,21.46
2018-08-04T20:20:39.158Z,21.52
2018-08-04T20:23:07.701Z,21.42
2018-08-04T20:25:36.344Z,21.43
2018-08-04T20:28:04.884Z,21.31
2018-08-04T20:30:33.399Z,21.35
2018-08-04T20:33:02.101Z,21.24
2018-08-04T20:35:30.662Z,21.23
2018-08-04T20:37:59.206Z,21.17
2018-08-04T20:40:27.866Z,21.21
2018-08-04T20:42:56.395Z,21.22
2018-08-04T20:45:25.006Z,21.16
2018-08-04T20:47:54.211Z,21.02
2018-08-04T20:50:22.816Z,21.07
2018-08-04T20:52:51.734Z,21.00
2018-08-04T20:55:20.261Z,21.08
2018-08-04T20:57:49.121Z,21.01
2018-08-04T21:00:17.650Z,20.98
2018-08-04T21:02:46.341Z,21.04
2018-08-04T21:05:14.967Z,20.97
2018-08-04T21:07:43.531Z,20.99
2018-08-04T21:10:12.224Z,20.97
2018-08-04T21:12:40.736Z,21.08
2018-08-04T21:15:09.368Z,21.14
2018-08-04T21:17:38.918Z,21.20
2018-08-04T21:20:07.414Z,21.16
2018-08-04T21:22:35.968Z,21.21
2018-08-04T21:25:04.545Z,21.13
2018-08-04T21:27:33.065Z,21.20
2018-08-04T21:30:01.888Z,21.20
2018-08-04T21:32:30.455Z,21.26
2018-08-04T21:34:59.053Z,21.24
2018-08-04T21:37:27.703Z,21.28
2018-08-04T21:39:56.301Z,21.33
2018-08-04T21:42:24.828Z,21.21
2018-08-04T21:44:53.336Z,21.28
2018-08-04T21:47:21.977Z,21.33
2018-08-04T21:49:50.510Z,21.28
2018-08-04T21:52:19.143Z,21.15
2018-08-04T21:54:47.757Z,21.14
2018-08-04T21:57:16.270Z,21.09
2018-08-04T21:59:44.857Z,21.01
2018-08-04T22:02:13.509Z,20.86
2018-08-04T22:04:42.117Z,20.75
2018-08-04T22:07:48.295Z,20.80
2018-08-04T22:10:17.058Z,20.63
2018-08-04T22:12:45.773Z,20.65
2018-08-04T22:15:15.459Z,20.53
2018-08-04T22:17:44.394Z,20.54
2018-08-04T22:20:14.129Z,20.52
2018-08-04T22:22:43.271Z,20.49
2018-08-04T22:25:13.373Z,20.41
2018-08-04T22:27:42.409Z,20.34
2018-08-04T22:30:12.473Z,20.38
2018-08-04T22:32:41.631Z,20.33
2018-08-04T22:35:10.188Z,20.32
2018-08-04T22:37:39.452Z,20.37
2018-08-04T22:40:08.863Z,20.39
2018-08-04T22:42:37.783Z,20.30
2018-08-04T22:45:17.506Z,20.35
2018-08-04T22:47:46.000Z,20.24
2018-08-04T22:50:14.815Z,20.20
2018-08-04T22:52:43.457Z,20.20
2018-08-04T22:55:11.994Z,20.08
2018-08-04T22:57:40.560Z,20.08
2018-08-04T23:00:09.105Z,20.10
2018-08-04T23:02:37.660Z,20.05
2018-08-04T23:05:06.173Z,19.99
2018-08-04T23:07:34.767Z,19.92
2018-08-04T23:10:03.345Z,19.83
2018-08-04T23:12:32.027Z,19.74
2018-08-04T23:15:00.519Z,19.76
2018-08-04T23:17:29.092Z,19.76
2018-08-04T23:19:57.826Z,19.81
2018-08-04T23:22:26.368Z,19.76
2018-08-04T23:24:55.009Z,19.78
2018-08-04T23:27:23.492Z,19.64
2018-08-04T23:29:52.011Z,19.73
2018-08-04T23:32:20.718Z,19.74
2018-08-04T23:34:49.240Z,19.64
2018-08-04T23:37:17.798Z,19.43
2018-08-04T23:39:46.410Z,19.46
2018-08-04T23:42:14.976Z,19.54
2018-08-04T23:44:43.841Z,19.47
2018-08-04T23:47:12.449Z,19.39
2018-08-04T23:49:40.972Z,19.30
2018-08-04T23:52:09.942Z,19.33
2018-08-04T23:54:38.586Z,19.38
2018-08-04T23:57:07.155Z,19.28
2018-08-04T23:59:35.656Z,19.32
